createdAt,value
2017-12-13T00:00:30.266Z,0
2017-12-13T00:01:40.081Z,0
2017-12-13T00:02:49.897Z,0
2017-12-13T00:03:59.690Z,0
2017-12-13T00:05:09.513Z,0
2017-12-13T00:06:19.064Z,0
2017-12-13T00:07:29.134Z,0
2017-12-13T00:08:39.238Z,0
2017-12-13T00:09:49.019Z,0
2017-12-13T00:10:58.844Z,0
2017-12-13T00:12:08.909Z,0
2017-12-13T00:13:18.973Z,0
2017-12-13T00:14:28.817Z,0
2017-12-13T00:15:39.531Z,0
2017-12-13T00:16:49.590Z,0
2017-12-13T00:17:59.660Z,0
2017-12-13T00:19:09.463Z,0
2017-12-13T00:20:19.999Z,0
2017-12-13T00:21:30.060Z,0
2017-12-13T00:22:40.145Z,0
2017-12-13T00:23:50.227Z,0
2017-12-13T00:25:00.035Z,0
2017-12-13T00:26:10.107Z,0
2017-12-13T00:27:20.178Z,0
2017-12-13T00:28:29.986Z,0
2017-12-13T00:29:40.044Z,0
2017-12-13T00:30:50.840Z,0
2017-12-13T00:32:01.519Z,0
2017-12-13T00:33:11.353Z,0
2017-12-13T00:34:21.154Z,0
2017-12-13T00:35:31.188Z,0
2017-12-13T00:36:41.244Z,0
2017-12-13T00:37:51.363Z,0
2017-12-13T00:39:01.169Z,0
2017-12-13T00:40:11.262Z,0
2017-12-13T00:41:21.333Z,0
2017-12-13T00:42:30.868Z,0
2017-12-13T00:43:41.139Z,0
2017-12-13T00:44:51.199Z,0
2017-12-13T00:46:00.988Z,0
2017-12-13T00:47:10.754Z,0
2017-12-13T00:48:20.738Z,0
2017-12-13T00:49:30.940Z,0
2017-12-13T00:50:40.681Z,0
2017-12-13T00:51:50.469Z,0
2017-12-13T00:53:00.536Z,0
2017-12-13T00:54:10.340Z,0
2017-12-13T00:55:20.384Z,0
2017-12-13T00:56:30.418Z,0
2017-12-13T00:57:40.475Z,0
2017-12-13T00:58:50.261Z,0
2017-12-13T01:00:00.089Z,0
2017-12-13T01:01:12.275Z,0
2017-12-13T01:02:22.480Z,0
2017-12-13T01:03:32.263Z,0
2017-12-13T01:04:42.059Z,0
2017-12-13T01:05:52.115Z,0
2017-12-13T01:07:02.168Z,0
2017-12-13T01:08:11.955Z,0
2017-12-13T01:09:22.016Z,0
2017-12-13T01:10:32.084Z,0
2017-12-13T01:11:41.878Z,0
2017-12-13T01:12:51.713Z,0
2017-12-13T01:14:01.869Z,0
2017-12-13T01:15:11.933Z,0
2017-12-13T01:16:21.480Z,0
2017-12-13T01:17:31.635Z,0
2017-12-13T01:18:42.293Z,0
2017-12-13T01:19:52.080Z,0
2017-12-13T01:21:01.970Z,0
2017-12-13T01:22:12.033Z,0
2017-12-13T01:23:22.084Z,0
2017-12-13T01:24:31.874Z,0
2017-12-13T01:25:41.928Z,0
2017-12-13T01:26:51.982Z,0
2017-12-13T01:28:01.765Z,0
2017-12-13T01:29:11.815Z,0
2017-12-13T01:30:21.876Z,0
2017-12-13T01:31:31.399Z,0
2017-12-13T01:32:41.202Z,0
2017-12-13T01:33:50.989Z,0
2017-12-13T01:35:01.041Z,0
2017-12-13T01:36:11.099Z,0
2017-12-13T01:37:21.200Z,0
2017-12-13T01:38:31.255Z,0
2017-12-13T01:39:41.308Z,0
2017-12-13T01:40:51.104Z,0
2017-12-13T01:42:01.253Z,0
2017-12-13T01:43:11.049Z,0
2017-12-13T01:44:20.841Z,0
2017-12-13T01:45:30.357Z,0
2017-12-13T01:46:39.619Z,0
2017-12-13T01:47:49.726Z,0
2017-12-13T01:48:59.252Z,0
2017-12-13T01:50:08.771Z,0
2017-12-13T01:51:18.568Z,0
2017-12-13T01:52:28.096Z,0
2017-12-13T01:53:38.600Z,0
2017-12-13T01:54:48.661Z,0
2017-12-13T01:56:01.070Z,0
2017-12-13T01:57:10.873Z,0
2017-12-13T01:58:21.180Z,0
2017-12-13T01:59:31.283Z,0
2017-12-13T02:00:41.351Z,0
2017-12-13T02:01:51.410Z,0
2017-12-13T02:03:01.534Z,0
2017-12-13T02:04:11.600Z,0
2017-12-13T02:05:21.706Z,0
2017-12-13T02:06:31.759Z,0
2017-12-13T02:07:41.282Z,0
2017-12-13T02:08:51.337Z,0
2017-12-13T02:10:01.385Z,0
2017-12-13T02:11:11.174Z,0
2017-12-13T02:12:20.701Z,0
2017-12-13T02:13:30.493Z,0
2017-12-13T02:14:40.294Z,0
2017-12-13T02:15:50.328Z,0
2017-12-13T02:16:59.862Z,0
2017-12-13T02:18:09.642Z,0
2017-12-13T02:19:19.505Z,0
2017-12-13T02:20:29.308Z,0
2017-12-13T02:21:39.369Z,0
2017-12-13T02:22:49.425Z,0
2017-12-13T02:23:59.213Z,0
2017-12-13T02:25:08.755Z,0
2017-12-13T02:26:18.297Z,0
2017-12-13T02:27:28.348Z,0
2017-12-13T02:28:38.403Z,0
2017-12-13T02:29:48.509Z,0
2017-12-13T02:30:58.315Z,0
2017-12-13T02:32:07.851Z,0
2017-12-13T02:33:17.644Z,0
2017-12-13T02:34:27.496Z,0
2017-12-13T02:35:37.292Z,0
2017-12-13T02:36:47.346Z,0
2017-12-13T02:37:57.157Z,0
2017-12-13T02:39:06.940Z,0
2017-12-13T02:40:16.997Z,0
2017-12-13T02:41:27.072Z,0
2017-12-13T02:42:36.861Z,0
2017-12-13T02:43:46.919Z,0
2017-12-13T02:44:56.697Z,0
2017-12-13T02:46:06.274Z,0
2017-12-13T02:47:16.325Z,0
2017-12-13T02:48:26.131Z,0
2017-12-13T02:49:35.959Z,0
2017-12-13T02:50:46.062Z,0
2017-12-13T02:51:56.732Z,0
2017-12-13T02:53:06.412Z,0
2017-12-13T02:54:15.931Z,0
2017-12-13T02:55:25.978Z,0
2017-12-13T02:56:36.048Z,0
2017-12-13T02:57:45.882Z,0
2017-12-13T02:58:55.663Z,0
2017-12-13T03:00:05.455Z,0
2017-12-13T03:01:14.988Z,0
2017-12-13T03:02:25.046Z,0
2017-12-13T03:34:23.621Z,0
2017-12-13T03:35:33.663Z,0
2017-12-13T03:36:43.435Z,0
2017-12-13T03:37:53.208Z,0
2017-12-13T03:39:02.993Z,0
2017-12-13T03:40:13.047Z,0
2017-12-13T03:41:23.090Z,0
2017-12-13T03:42:33.148Z,0
2017-12-13T03:43:42.919Z,0
2017-12-13T03:44:52.190Z,0
2017-12-13T03:46:01.977Z,0
2017-12-13T03:47:12.022Z,0
2017-12-13T03:48:21.550Z,0
2017-12-13T03:49:31.590Z,0
2017-12-13T03:50:41.384Z,0
2017-12-13T03:51:51.432Z,0
2017-12-13T03:53:01.502Z,0
2017-12-13T03:54:10.757Z,0
2017-12-13T03:55:20.548Z,0
2017-12-13T03:56:30.087Z,0
2017-12-13T03:57:39.877Z,0
2017-12-13T03:58:50.029Z,0
2017-12-13T04:00:00.087Z,0
2017-12-13T04:01:09.864Z,0
2017-12-13T04:02:19.919Z,0
2017-12-13T04:03:29.975Z,0
2017-12-13T04:04:40.033Z,0
2017-12-13T04:05:50.079Z,0
2017-12-13T04:07:00.119Z,0
2017-12-13T04:08:09.656Z,0
2017-12-13T04:09:19.714Z,0
2017-12-13T04:10:29.497Z,0
2017-12-13T04:11:39.545Z,0
2017-12-13T04:12:49.332Z,0
2017-12-13T04:13:59.373Z,0
2017-12-13T04:15:08.962Z,0
2017-12-13T04:16:19.078Z,0
2017-12-13T04:17:29.129Z,0
2017-12-13T04:18:39.177Z,0
2017-12-13T04:19:48.973Z,0
2017-12-13T04:20:58.760Z,0
2017-12-13T04:22:08.552Z,0
2017-12-13T04:23:18.333Z,0
2017-12-13T04:24:29.506Z,0
2017-12-13T04:25:39.570Z,0
2017-12-13T04:26:49.649Z,0
2017-12-13T04:27:59.736Z,0
2017-12-13T04:29:09.529Z,0
2017-12-13T04:30:19.329Z,0
2017-12-13T04:31:29.394Z,0
2017-12-13T04:32:39.453Z,0
2017-12-13T04:33:49.526Z,0
2017-12-13T04:34:59.577Z,0
2017-12-13T04:36:09.628Z,0
2017-12-13T04:37:19.695Z,0
2017-12-13T04:38:29.801Z,0
2017-12-13T04:39:39.584Z,0
2017-12-13T04:40:49.634Z,0
2017-12-13T04:41:59.685Z,0
2017-12-13T04:43:09.471Z,0
2017-12-13T04:44:19.586Z,0
2017-12-13T04:45:29.632Z,0
2017-12-13T04:46:39.668Z,0
2017-12-13T04:47:49.462Z,0
2017-12-13T04:48:59.524Z,0
2017-12-13T04:50:09.589Z,0
2017-12-13T04:51:19.395Z,0
2017-12-13T04:52:29.185Z,0
2017-12-13T04:53:38.968Z,0
2017-12-13T04:54:49.010Z,0
2017-12-13T04:55:58.800Z,0
2017-12-13T04:57:08.320Z,0
2017-12-13T04:58:18.127Z,0
2017-12-13T04:59:27.932Z,0
2017-12-13T05:00:37.994Z,0
2017-12-13T05:01:48.097Z,0
2017-12-13T05:02:57.359Z,0
2017-12-13T05:04:07.196Z,0
2017-12-13T05:05:16.994Z,0
2017-12-13T05:06:27.047Z,0
2017-12-13T05:07:37.090Z,0
2017-12-13T05:08:47.168Z,0
2017-12-13T05:09:57.228Z,0
2017-12-13T05:11:07.020Z,0
2017-12-13T05:12:17.059Z,0
2017-12-13T05:13:27.156Z,0
2017-12-13T05:14:37.220Z,0
2017-12-13T05:15:47.058Z,0
2017-12-13T05:16:56.854Z,0
2017-12-13T05:18:06.915Z,0
2017-12-13T05:19:16.954Z,0
2017-12-13T05:20:27.002Z,0
2017-12-13T05:21:36.527Z,0
2017-12-13T05:22:46.589Z,0
2017-12-13T05:23:56.649Z,0
2017-12-13T05:25:06.711Z,0
2017-12-13T05:26:16.526Z,0
2017-12-13T05:27:26.321Z,0
2017-12-13T05:28:36.364Z,0
2017-12-13T05:29:46.424Z,0
2017-12-13T05:30:56.496Z,0
2017-12-13T05:32:06.543Z,0
2017-12-13T05:33:16.594Z,0
2017-12-13T05:34:26.626Z,0
2017-12-13T05:35:36.671Z,0
2017-12-13T05:36:46.731Z,0
2017-12-13T05:37:56.790Z,0
2017-12-13T05:39:06.852Z,0
2017-12-13T05:40:16.632Z,0
2017-12-13T05:41:26.471Z,0
2017-12-13T05:42:36.517Z,0
2017-12-13T05:43:46.561Z,0
2017-12-13T05:44:56.602Z,0
2017-12-13T05:46:06.405Z,0
2017-12-13T05:47:16.455Z,0
2017-12-13T05:48:26.512Z,0
2017-12-13T05:49:36.302Z,0
2017-12-13T05:50:46.407Z,0
2017-12-13T05:51:56.204Z,0
2017-12-13T05:53:06.010Z,0
2017-12-13T05:54:16.052Z,0
2017-12-13T05:55:26.111Z,0
2017-12-13T05:56:35.945Z,0
2017-12-13T05:57:45.991Z,0
2017-12-13T05:58:55.514Z,0
2017-12-13T06:00:05.591Z,0
2017-12-13T06:01:15.671Z,0
2017-12-13T06:02:25.469Z,0
2017-12-13T06:03:35.534Z,0
2017-12-13T06:04:45.601Z,0
2017-12-13T06:05:55.388Z,0
2017-12-13T06:07:05.194Z,0
2017-12-13T06:08:14.718Z,0
2017-12-13T06:09:24.260Z,0
2017-12-13T06:10:34.315Z,0
2017-12-13T06:11:43.593Z,0
2017-12-13T06:12:53.398Z,0
2017-12-13T06:14:03.448Z,0
2017-12-13T06:15:13.490Z,0
2017-12-13T06:16:23.535Z,0
2017-12-13T06:17:33.062Z,0
2017-12-13T06:18:43.116Z,0
2017-12-13T06:19:52.927Z,0
2017-12-13T06:21:03.037Z,0
2017-12-13T06:22:12.557Z,0
2017-12-13T06:23:22.345Z,0
2017-12-13T06:24:32.191Z,0
2017-12-13T06:25:42.242Z,0
2017-12-13T06:26:52.024Z,0
2017-12-13T06:28:02.076Z,0
2017-12-13T06:29:11.613Z,0
2017-12-13T06:30:21.673Z,0
2017-12-13T06:31:31.508Z,0
2017-12-13T06:32:41.578Z,0
2017-12-13T06:33:51.365Z,0
2017-12-13T06:35:01.153Z,0
2017-12-13T06:36:10.987Z,0
2017-12-13T06:37:21.055Z,0
2017-12-13T06:38:30.847Z,0
2017-12-13T06:39:40.396Z,0
2017-12-13T06:40:50.492Z,0
2017-12-13T06:42:00.009Z,0
2017-12-13T06:43:10.060Z,0
2017-12-13T06:44:19.587Z,0
2017-12-13T06:45:29.369Z,0
2017-12-13T06:46:39.425Z,0
2017-12-13T06:47:48.746Z,0
2017-12-13T06:48:58.860Z,0
2017-12-13T06:50:08.929Z,0
2017-12-13T06:51:18.991Z,0
2017-12-13T06:52:29.045Z,0
2017-12-13T06:53:39.081Z,0
2017-12-13T06:54:48.877Z,5
2017-12-13T06:55:58.725Z,5
2017-12-13T06:57:08.525Z,5
2017-12-13T06:58:18.592Z,5
2017-12-13T06:59:28.431Z,5
2017-12-13T07:00:38.210Z,10
2017-12-13T07:01:47.757Z,10
2017-12-13T07:02:57.547Z,10
2017-12-13T07:04:07.600Z,10
2017-12-13T07:05:17.408Z,10
2017-12-13T07:06:27.193Z,10
2017-12-13T07:07:37.247Z,10
2017-12-13T07:08:47.017Z,10
2017-12-13T07:09:56.820Z,15
2017-12-13T07:11:06.396Z,15
2017-12-13T07:12:16.189Z,15
2017-12-13T07:13:25.725Z,15
2017-12-13T07:14:35.255Z,15
2017-12-13T07:15:45.064Z,15
2017-12-13T07:16:54.845Z,15
2017-12-13T07:18:04.633Z,20
2017-12-13T07:19:14.414Z,20
2017-12-13T07:20:23.934Z,20
2017-12-13T07:21:33.988Z,20
2017-12-13T07:22:43.526Z,20
2017-12-13T07:23:52.794Z,20
2017-12-13T07:25:02.851Z,20
2017-12-13T07:26:12.914Z,25
2017-12-13T07:27:22.967Z,25
2017-12-13T07:28:33.077Z,25
2017-12-13T07:29:42.860Z,25
2017-12-13T07:30:52.990Z,25
2017-12-13T07:32:02.785Z,25
2017-12-13T07:33:12.844Z,25
2017-12-13T07:34:22.641Z,30
2017-12-13T07:35:32.178Z,30
2017-12-13T07:36:41.962Z,30
2017-12-13T07:37:51.736Z,35
2017-12-13T07:39:01.822Z,35
2017-12-13T07:40:11.722Z,40
2017-12-13T07:41:21.520Z,40
2017-12-13T07:42:31.574Z,40
2017-12-13T07:43:41.367Z,40
2017-12-13T07:44:51.153Z,40
2017-12-13T07:46:01.202Z,40
2017-12-13T07:47:10.983Z,40
2017-12-13T07:48:20.769Z,40
2017-12-13T07:49:30.304Z,40
2017-12-13T07:50:41.158Z,45
2017-12-13T07:51:51.267Z,45
2017-12-13T07:53:01.081Z,50
2017-12-13T07:54:10.354Z,50
2017-12-13T07:55:20.148Z,50
2017-12-13T07:56:30.189Z,50
2017-12-13T07:57:41.363Z,50
2017-12-13T07:58:51.150Z,50
2017-12-13T08:00:01.220Z,55
2017-12-13T08:01:11.017Z,55
2017-12-13T08:02:21.094Z,55
2017-12-13T08:03:30.690Z,55
2017-12-13T08:04:40.487Z,55
2017-12-13T08:05:50.542Z,55
2017-12-13T08:07:00.336Z,60
2017-12-13T08:08:10.466Z,60
2017-12-13T08:09:20.048Z,60
2017-12-13T08:10:29.840Z,65
2017-12-13T08:11:39.635Z,65
2017-12-13T08:12:49.617Z,65
2017-12-13T08:13:59.665Z,65
2017-12-13T08:15:09.483Z,65
2017-12-13T08:16:19.528Z,65
2017-12-13T08:17:29.322Z,65
2017-12-13T08:18:39.387Z,65
2017-12-13T08:19:49.446Z,65
2017-12-13T08:20:59.248Z,60
2017-12-13T08:22:09.037Z,65
2017-12-13T08:23:19.097Z,65
2017-12-13T08:24:28.898Z,60
2017-12-13T08:25:38.697Z,60
2017-12-13T08:26:48.495Z,60
2017-12-13T08:27:58.292Z,60
2017-12-13T08:29:08.092Z,60
2017-12-13T08:30:17.876Z,60
2017-12-13T08:31:27.675Z,65
2017-12-13T08:32:37.216Z,65
2017-12-13T08:33:47.288Z,65
2017-12-13T08:34:56.837Z,65
2017-12-13T08:36:06.654Z,65
2017-12-13T08:37:16.698Z,70
2017-12-13T08:38:26.934Z,70
2017-12-13T08:39:36.743Z,70
2017-12-13T08:40:46.537Z,70
2017-12-13T08:41:56.616Z,70
2017-12-13T08:43:06.675Z,90
2017-12-13T08:44:17.823Z,90
2017-12-13T08:45:27.888Z,75
2017-12-13T08:46:37.665Z,80
2017-12-13T08:47:47.723Z,80
2017-12-13T08:48:57.522Z,100
2017-12-13T08:50:07.154Z,125
2017-12-13T08:51:17.280Z,125
2017-12-13T08:52:27.722Z,80
2017-12-13T08:53:37.515Z,85
2017-12-13T08:54:47.597Z,80
2017-12-13T08:55:57.129Z,80
2017-12-13T08:57:07.487Z,85
2017-12-13T08:58:17.542Z,95
2017-12-13T08:59:27.080Z,130
2017-12-13T09:00:37.139Z,105
2017-12-13T09:01:46.932Z,130
2017-12-13T09:02:57.001Z,85
2017-12-13T09:04:07.071Z,85
2017-12-13T09:05:17.143Z,80
2017-12-13T09:06:26.663Z,80
2017-12-13T09:07:36.723Z,75
2017-12-13T09:08:46.784Z,75
2017-12-13T09:09:56.574Z,75
2017-12-13T09:11:06.368Z,75
2017-12-13T09:12:16.434Z,75
2017-12-13T09:13:26.272Z,75
2017-12-13T09:14:36.069Z,80
2017-12-13T09:15:46.135Z,120
2017-12-13T09:16:55.929Z,80
2017-12-13T09:18:05.989Z,85
2017-12-13T09:19:16.081Z,140
2017-12-13T09:20:25.880Z,130
2017-12-13T09:21:35.682Z,100
2017-12-13T09:22:46.181Z,100
2017-12-13T09:23:55.687Z,140
2017-12-13T09:25:05.269Z,120
2017-12-13T09:26:15.314Z,145
2017-12-13T09:27:25.386Z,85
2017-12-13T09:28:34.920Z,80
2017-12-13T09:29:45.029Z,80
2017-12-13T09:30:54.871Z,80
2017-12-13T09:32:04.943Z,80
2017-12-13T09:33:14.480Z,85
2017-12-13T09:34:24.533Z,80
2017-12-13T09:35:34.070Z,135
2017-12-13T09:36:44.166Z,125
2017-12-13T09:37:54.233Z,85
2017-12-13T09:39:04.293Z,145
2017-12-13T09:40:14.098Z,145
2017-12-13T09:41:23.884Z,115
2017-12-13T09:42:33.985Z,90
2017-12-13T09:43:43.772Z,110
2017-12-13T09:44:53.553Z,140
2017-12-13T09:46:03.345Z,135
2017-12-13T09:47:13.142Z,100
2017-12-13T09:48:23.203Z,105
2017-12-13T09:49:33.250Z,165
2017-12-13T09:50:43.372Z,125
2017-12-13T09:51:53.193Z,170
2017-12-13T09:53:02.738Z,160
2017-12-13T09:54:12.851Z,180
2017-12-13T09:55:22.653Z,185
2017-12-13T09:56:32.778Z,185
2017-12-13T09:57:42.048Z,185
2017-12-13T09:58:51.844Z,180
2017-12-13T10:00:02.066Z,185
2017-12-13T10:01:12.138Z,185
2017-12-13T10:02:22.190Z,190
2017-12-13T10:03:32.238Z,190
2017-12-13T10:04:42.312Z,160
2017-12-13T10:05:52.089Z,160
2017-12-13T10:07:01.888Z,140
2017-12-13T10:08:11.958Z,110
2017-12-13T10:09:21.772Z,115
2017-12-13T10:10:31.304Z,110
2017-12-13T10:11:41.098Z,105
2017-12-13T10:12:50.905Z,105
2017-12-13T10:14:00.702Z,110
2017-12-13T10:15:10.519Z,110
2017-12-13T10:16:20.317Z,110
2017-12-13T10:17:29.850Z,110
2017-12-13T10:18:39.646Z,105
2017-12-13T10:19:49.696Z,165
2017-12-13T10:20:59.223Z,105
2017-12-13T10:22:09.290Z,180
2017-12-13T10:23:19.133Z,175
2017-12-13T10:24:29.185Z,175
2017-12-13T10:25:39.304Z,115
2017-12-13T10:26:49.362Z,95
2017-12-13T10:27:59.423Z,105
2017-12-13T10:29:09.227Z,165
2017-12-13T10:30:19.311Z,145
2017-12-13T10:31:29.387Z,125
2017-12-13T10:32:39.177Z,90
2017-12-13T10:33:48.973Z,120
2017-12-13T10:34:59.088Z,170
2017-12-13T10:36:08.883Z,170
2017-12-13T10:37:18.421Z,170
2017-12-13T10:38:28.489Z,170
2017-12-13T10:39:38.286Z,165
2017-12-13T10:40:48.138Z,165
2017-12-13T10:41:58.211Z,160
2017-12-13T10:43:08.275Z,160
2017-12-13T10:44:18.352Z,160
2017-12-13T10:45:28.171Z,165
2017-12-13T10:46:38.010Z,165
2017-12-13T10:47:47.811Z,165
2017-12-13T10:48:57.614Z,165
2017-12-13T10:50:08.353Z,160
2017-12-13T10:51:18.129Z,170
2017-12-13T10:52:28.185Z,175
2017-12-13T10:53:38.235Z,175
2017-12-13T10:54:48.289Z,165
2017-12-13T10:55:58.331Z,150
2017-12-13T10:57:07.864Z,150
2017-12-13T10:58:17.463Z,175
2017-12-13T10:59:27.521Z,155
2017-12-13T11:00:37.312Z,160
2017-12-13T11:01:47.856Z,170
2017-12-13T11:02:57.904Z,155
2017-12-13T11:04:07.954Z,135
2017-12-13T11:05:18.067Z,170
2017-12-13T11:06:27.857Z,170
2017-12-13T11:07:37.901Z,170
2017-12-13T11:08:47.965Z,165
2017-12-13T11:09:57.744Z,170
2017-12-13T11:11:08.868Z,160
2017-12-13T11:12:18.654Z,165
2017-12-13T11:13:28.706Z,120
2017-12-13T11:14:38.233Z,95
2017-12-13T11:15:47.745Z,85
2017-12-13T11:16:57.596Z,90
2017-12-13T11:18:07.113Z,110
2017-12-13T11:19:16.651Z,95
2017-12-13T11:20:26.224Z,135
2017-12-13T11:21:36.291Z,110
2017-12-13T11:22:46.340Z,155
2017-12-13T11:23:56.422Z,175
2017-12-13T11:25:06.229Z,175
2017-12-13T11:26:16.277Z,175
2017-12-13T11:27:26.341Z,175
2017-12-13T11:28:36.192Z,170
2017-12-13T11:29:45.991Z,170
2017-12-13T11:30:56.270Z,170
2017-12-13T11:32:06.064Z,170
2017-12-13T11:33:16.111Z,170
2017-12-13T11:34:26.154Z,170
2017-12-13T11:35:35.688Z,170
2017-12-13T11:36:45.742Z,150
2017-12-13T11:37:55.853Z,155
2017-12-13T11:39:05.770Z,95
2017-12-13T11:40:15.892Z,125
2017-12-13T11:41:25.954Z,115
2017-12-13T11:42:35.495Z,90
2017-12-13T11:43:45.566Z,95
2017-12-13T11:44:55.690Z,155
2017-12-13T11:46:06.168Z,85
2017-12-13T11:47:16.235Z,105
2017-12-13T11:48:26.298Z,85
2017-12-13T11:49:36.077Z,85
2017-12-13T11:50:46.202Z,85
2017-12-13T11:51:56.303Z,90
2017-12-13T11:53:08.770Z,85
2017-12-13T11:54:18.309Z,165
2017-12-13T11:55:28.118Z,85
2017-12-13T11:56:37.910Z,100
2017-12-13T11:57:47.768Z,105
2017-12-13T11:58:57.555Z,150
2017-12-13T12:00:07.683Z,85
2017-12-13T12:01:17.747Z,155
2017-12-13T12:02:29.382Z,100
2017-12-13T12:03:39.167Z,150
2017-12-13T12:04:48.714Z,115
2017-12-13T12:05:58.516Z,115
2017-12-13T12:07:08.612Z,85
2017-12-13T12:08:18.685Z,145
2017-12-13T12:09:28.525Z,125
2017-12-13T12:10:38.097Z,125
2017-12-13T12:11:48.224Z,105
2017-12-13T12:12:58.341Z,155
2017-12-13T12:14:08.399Z,165
2017-12-13T12:15:18.238Z,245
2017-12-13T12:16:28.600Z,100
2017-12-13T12:17:38.656Z,90
2017-12-13T12:18:48.207Z,85
2017-12-13T12:19:58.276Z,100
2017-12-13T12:21:08.540Z,115
2017-12-13T12:22:18.631Z,125
2017-12-13T12:23:28.162Z,120
2017-12-13T12:24:37.999Z,130
2017-12-13T12:25:48.079Z,100
2017-12-13T12:26:58.139Z,95
2017-12-13T12:28:07.670Z,125
2017-12-13T12:29:17.472Z,170
2017-12-13T12:30:27.266Z,155
2017-12-13T12:31:37.455Z,200
2017-12-13T12:32:47.528Z,195
2017-12-13T12:33:57.329Z,180
2017-12-13T12:35:07.409Z,170
2017-12-13T12:36:17.508Z,160
2017-12-13T12:37:27.567Z,150
2017-12-13T12:38:37.612Z,155
2017-12-13T12:39:47.409Z,160
2017-12-13T12:40:57.465Z,165
2017-12-13T12:42:07.526Z,140
2017-12-13T12:43:17.606Z,150
2017-12-13T12:44:27.160Z,160
2017-12-13T12:45:36.964Z,165
2017-12-13T12:46:47.035Z,165
2017-12-13T12:47:56.849Z,165
2017-12-13T12:49:06.656Z,165
2017-12-13T12:50:16.464Z,160
2017-12-13T12:51:26.611Z,155
2017-12-13T12:52:36.685Z,95
2017-12-13T12:53:46.331Z,80
2017-12-13T12:54:55.621Z,80
2017-12-13T12:56:06.881Z,80
2017-12-13T12:57:16.149Z,80
2017-12-13T12:58:25.938Z,110
2017-12-13T12:59:36.070Z,135
2017-12-13T13:00:45.875Z,130
2017-12-13T13:01:55.936Z,130
2017-12-13T13:03:06.691Z,125
2017-12-13T13:04:16.780Z,130
2017-12-13T13:05:26.590Z,135
2017-12-13T13:06:36.401Z,130
2017-12-13T13:07:46.517Z,130
2017-12-13T13:08:56.358Z,125
2017-12-13T13:10:06.246Z,120
2017-12-13T13:11:16.382Z,75
2017-12-13T13:12:26.720Z,80
2017-12-13T13:13:36.548Z,75
2017-12-13T13:14:46.373Z,75
2017-12-13T13:15:56.434Z,85
2017-12-13T13:17:06.504Z,110
2017-12-13T13:18:17.399Z,115
2017-12-13T13:19:28.314Z,115
2017-12-13T13:20:38.109Z,115
2017-12-13T13:21:48.179Z,115
2017-12-13T13:22:57.988Z,115
2017-12-13T13:24:07.770Z,110
2017-12-13T13:25:17.594Z,90
2017-12-13T13:26:27.670Z,90
2017-12-13T13:27:37.474Z,90
2017-12-13T13:28:47.321Z,95
2017-12-13T13:29:57.117Z,85
2017-12-13T13:31:07.190Z,85
2017-12-13T13:32:17.274Z,85
2017-12-13T13:33:27.347Z,95
2017-12-13T13:34:36.930Z,105
2017-12-13T13:35:46.722Z,110
2017-12-13T13:36:56.513Z,110
2017-12-13T13:38:06.589Z,110
2017-12-13T13:39:16.112Z,110
2017-12-13T13:40:25.981Z,105
2017-12-13T13:41:35.769Z,105
2017-12-13T13:42:45.563Z,105
2017-12-13T13:43:55.626Z,100
2017-12-13T13:45:05.693Z,100
2017-12-13T13:46:15.748Z,95
2017-12-13T13:47:25.554Z,95
2017-12-13T13:48:35.368Z,90
2017-12-13T13:49:46.167Z,90
2017-12-13T13:50:55.965Z,85
2017-12-13T13:52:06.094Z,80
2017-12-13T13:53:15.886Z,80
2017-12-13T13:54:25.948Z,75
2017-12-13T13:55:36.793Z,75
2017-12-13T13:56:46.580Z,75
2017-12-13T13:57:56.488Z,70
2017-12-13T13:59:06.546Z,70
2017-12-13T14:00:16.391Z,65
2017-12-13T14:01:26.480Z,65
2017-12-13T14:02:36.045Z,60
2017-12-13T14:03:46.168Z,60
2017-12-13T14:04:56.126Z,60
2017-12-13T14:06:06.198Z,55
2017-12-13T14:07:15.993Z,55
2017-12-13T14:08:26.049Z,50
2017-12-13T14:09:36.229Z,50
2017-12-13T14:10:46.037Z,50
2017-12-13T14:11:55.587Z,45
2017-12-13T14:13:05.931Z,45
2017-12-13T14:14:17.382Z,40
2017-12-13T14:15:27.490Z,40
2017-12-13T14:16:37.277Z,40
2017-12-13T14:17:46.823Z,40
2017-12-13T14:18:56.370Z,40
2017-12-13T14:20:06.432Z,35
2017-12-13T14:21:16.494Z,35
2017-12-13T14:22:26.553Z,30
2017-12-13T14:23:36.429Z,30
2017-12-13T14:24:46.286Z,30
2017-12-13T14:25:55.829Z,25
2017-12-13T14:27:05.395Z,25
2017-12-13T14:28:15.479Z,25
2017-12-13T14:29:41.677Z,25
2017-12-13T14:30:51.723Z,20
2017-12-13T14:32:01.265Z,20
2017-12-13T14:33:11.350Z,20
2017-12-13T14:34:21.404Z,20
2017-12-13T14:35:31.529Z,20
2017-12-13T14:36:41.337Z,15
2017-12-13T14:37:50.878Z,15
2017-12-13T14:39:00.666Z,15
2017-12-13T14:40:10.766Z,15
2017-12-13T14:41:21.491Z,15
2017-12-13T14:42:31.546Z,15
2017-12-13T14:43:41.618Z,10
2017-12-13T14:44:51.171Z,10
2017-12-13T14:46:01.219Z,10
2017-12-13T14:47:11.307Z,10
2017-12-13T14:48:20.883Z,10
2017-12-13T14:49:30.418Z,10
2017-12-13T14:50:39.947Z,10
2017-12-13T14:51:49.734Z,5
2017-12-13T14:52:59.277Z,5
2017-12-13T14:54:09.329Z,5
2017-12-13T14:55:19.120Z,5
2017-12-13T14:56:29.166Z,5
2017-12-13T14:57:38.954Z,5
2017-12-13T14:58:48.793Z,5
2017-12-13T14:59:58.351Z,5
2017-12-13T15:01:08.153Z,5
2017-12-13T15:02:17.951Z,0
2017-12-13T15:03:28.023Z,0
2017-12-13T15:04:38.154Z,0
2017-12-13T15:05:48.216Z,0
2017-12-13T15:06:58.284Z,0
2017-12-13T15:08:08.075Z,0
2017-12-13T15:09:17.608Z,0
2017-12-13T15:10:27.678Z,0
2017-12-13T15:11:37.228Z,0
2017-12-13T15:12:47.291Z,0
2017-12-13T15:13:57.757Z,0
2017-12-13T15:15:08.840Z,0
2017-12-13T15:16:18.706Z,0
2017-12-13T15:17:28.771Z,0
2017-12-13T15:18:38.837Z,0
2017-12-13T15:19:48.898Z,0
2017-12-13T15:20:58.424Z,0
2017-12-13T15:22:08.487Z,0
2017-12-13T15:23:19.961Z,0
2017-12-13T15:24:29.768Z,0
2017-12-13T15:25:39.568Z,0
2017-12-13T15:26:49.629Z,0
2017-12-13T15:27:59.692Z,0
2017-12-13T15:29:09.497Z,0
2017-12-13T15:30:19.067Z,0
2017-12-13T15:31:28.609Z,0
2017-12-13T15:32:38.401Z,0
2017-12-13T15:33:48.508Z,0
2017-12-13T15:34:58.570Z,0
2017-12-13T15:36:08.354Z,0
2017-12-13T15:37:18.410Z,0
2017-12-13T15:38:28.493Z,0
2017-12-13T15:39:38.559Z,0
2017-12-13T15:40:48.425Z,0
2017-12-13T15:41:58.488Z,0
2017-12-13T15:43:08.277Z,0
2017-12-13T15:44:18.325Z,0
2017-12-13T15:45:28.375Z,0
2017-12-13T15:46:38.187Z,0
2017-12-13T15:47:47.984Z,0
2017-12-13T15:48:58.050Z,0
2017-12-13T15:50:07.834Z,0
2017-12-13T15:51:17.945Z,0
2017-12-13T15:52:28.005Z,0
2017-12-13T15:53:38.073Z,0
2017-12-13T15:54:48.136Z,0
2017-12-13T15:55:57.976Z,0
2017-12-13T15:57:08.039Z,0
2017-12-13T15:58:18.098Z,0
2017-12-13T15:59:27.888Z,0
2017-12-13T16:00:38.851Z,0
2017-12-13T16:01:48.662Z,0
2017-12-13T16:02:58.517Z,0
2017-12-13T16:04:08.334Z,0
2017-12-13T16:05:18.387Z,0
2017-12-13T16:06:28.468Z,0
2017-12-13T16:07:38.519Z,0
2017-12-13T16:08:48.330Z,0
2017-12-13T16:09:58.465Z,0
2017-12-13T16:11:08.537Z,0
2017-12-13T16:12:18.602Z,0
2017-12-13T16:13:28.522Z,0
2017-12-13T16:14:38.574Z,0
2017-12-13T16:15:48.636Z,0
2017-12-13T16:16:58.443Z,0
2017-12-13T16:18:08.259Z,0
2017-12-13T16:19:17.535Z,0
2017-12-13T16:20:27.360Z,0
2017-12-13T16:21:37.414Z,0
2017-12-13T16:22:47.220Z,0
2017-12-13T16:23:57.004Z,0
2017-12-13T16:25:06.806Z,0
2017-12-13T16:26:16.925Z,0
2017-12-13T16:27:26.969Z,0
2017-12-13T16:28:36.505Z,0
2017-12-13T16:29:46.568Z,0
2017-12-13T16:30:56.120Z,0
2017-12-13T16:32:07.258Z,0
2017-12-13T16:33:17.108Z,0
2017-12-13T16:34:26.919Z,0
2017-12-13T16:35:36.970Z,0
2017-12-13T16:36:47.036Z,0
2017-12-13T16:37:57.142Z,0
2017-12-13T16:39:08.345Z,0
2017-12-13T16:40:18.133Z,0
2017-12-13T16:41:27.931Z,0
2017-12-13T16:42:37.737Z,0
2017-12-13T16:43:47.273Z,0
2017-12-13T16:44:57.335Z,0
2017-12-13T16:46:07.124Z,0
2017-12-13T16:47:17.214Z,0
2017-12-13T16:48:26.749Z,0
2017-12-13T16:49:36.704Z,0
2017-12-13T16:50:48.029Z,0
2017-12-13T16:51:58.100Z,0
2017-12-13T16:53:08.165Z,0
2017-12-13T16:54:18.271Z,0
2017-12-13T16:55:28.338Z,0
2017-12-13T16:56:38.391Z,0
2017-12-13T16:57:48.186Z,0
2017-12-13T16:58:58.226Z,0
2017-12-13T17:00:08.052Z,0
2017-12-13T17:01:18.156Z,0
2017-12-13T17:02:27.966Z,0
2017-12-13T17:03:37.785Z,0
2017-12-13T17:04:47.596Z,0
2017-12-13T17:05:57.665Z,0
2017-12-13T17:07:07.739Z,0
2017-12-13T17:08:17.991Z,0
2017-12-13T17:09:27.786Z,0
2017-12-13T17:10:37.856Z,0
2017-12-13T17:11:47.710Z,0
2017-12-13T17:12:57.799Z,0
2017-12-13T17:14:07.891Z,0
2017-12-13T17:15:17.939Z,0
2017-12-13T17:16:27.727Z,0
2017-12-13T17:17:37.527Z,0
2017-12-13T17:18:47.703Z,0
2017-12-13T17:19:57.799Z,0